AirNav   Air Wisconsin Up To $57,000 Bonus
 
 285 users online  

AL52 USA Medical Center Heliport
Mobile, Alabama, USA

GOING TO MOBILE?


FAA INFORMATION EFFECTIVE 07 NOVEMBER 2019

Location

FAA Identifier: AL52
Lat/Long: 30-42-28.7400N 088-05-54.4900W
30-42.479000N 088-05.908167W
30.7079833,-88.0984694
(estimated)
Elevation: 28 ft. / 9 m (estimated)
Variation: 02E (1985)
Time zone: UTC -6 (UTC -5 during Daylight Saving Time)
Zip code: 36607

Heliport Operations

Heliport use: Private use, MEDICAL.
Activation date: 09/1984
Control tower: no
ARTCC: HOUSTON CENTER
FSS: ANNISTON FLIGHT SERVICE STATION
Attendance: CONTINUOUS
Wind indicator: lighted
Segmented circle: no
Lights: SS-SR

Heliport Communications

WX ASOS at BFM (5 nm S): PHONE 251-431-6762
WX ASOS at MOB (8 nm W): PHONE 251-607-0469
WX AWOS-3PT at CQF (19 nm SE): 118.425 (251-928-3242)

Nearby radio navigation aids

VOR radial/distance  VOR name  Freq  Var
BFMr335/6.1BROOKLEY VORTAC112.8004E
SJIr090/13.5SEMMES VORTAC115.3005E
GCVr135/30.8GREENE COUNTY VORTAC115.7005E

 
NDB name  Hdg/Dist  Freq  Var  ID
WISLE108/11.024801WMOB -- --- -...

Heliport Services

Runway Information

Helipad H1

Dimensions: 60 x 60 ft. / 18 x 18 m
Surface: concrete
Runway edge lights: PERI
Latitude: 30-42.479000N
Longitude: 088-05.908167W
Elevation: 28.0 ft.
Traffic pattern: leftleft

Heliport Ownership and Management from official FAA records

Ownership: Publicly-owned
Owner: UNIV OF SO ALABAMA MED CENTER
2451 FILLINGIM ST
MOBILE, AL 36617
Phone 251-471-7100
Manager: LAWRENCE GARDNER
2451 FILLINGIM ST
MOBILE, AL 36617
Phone (251) 471-7193

Additional Remarks

FOR CD CTC MOBILE APCH AT 251-662-6236, WHEN APCH CLSD CTC HOUSTON ARTCC AT 281-230-5622.

Instrument Procedures

There are no published instrument procedures at AL52.

Some nearby airports with instrument procedures:

KBFM - Mobile Downtown Airport (5 nm S)
KMOB - Mobile Regional Airport (8 nm W)
2R5 - St Elmo Airport (15 nm SW)
1R8 - Bay Minette Municipal Airport (17 nm NE)
KCQF - H L Sonny Callahan Airport (19 nm SE)
 
Loc | Ops | Rwys | IFR | FBO | Links
Com | Nav | Svcs | Stats | Notes

Continental Motors
AirBoss

 
Area around AL52 (USA Medical Center Heliport)
 
Road maps at: MapQuest Bing Google
 
Aerial photo
No photo
 
Sectional chart

 
Airport distance calculator
Flying to USA Medical Center Heliport? Find the distance to fly.

From to AL52

Sunrise and sunset
Times for 15-Nov-2019
 Local
(UTC-6)
 Zulu
(UTC)
Morning civil twilight05:5411:54
Sunrise06:2012:20
Sunset16:5422:54
Evening civil twilight17:2023:20

Current date and time
Zulu (UTC)  15-Nov-2019 08:38:16
Local (UTC-6)  15-Nov-2019 02:38:16
 
METAR
KBFM 
6nm S 
150753Z AUTO 33012KT 10SM BKN060 OVC080 08/06 A3022 RMK AO2 SLP233 T00830056
KMOB 
8nm W 
150756Z AUTO 34009KT 10SM FEW019 SCT046 OVC085 07/05 A3022 RMK AO2 SLP234 T00720050
KCQF 
19nm SE 
150815Z AUTO 34003KT 10SM SCT050 BKN070 OVC090 06/05 A3019 RMK AO2
TAF
KBFM 
6nm S 
150538Z 1506/1606 35010KT P6SM BKN100 FM151500 36012KT P6SM FEW250 FM160000 34011KT P6SM SKC
KMOB 
8nm W 
150538Z 1506/1606 35008KT P6SM BKN100 FM151500 35012KT P6SM FEW250 FM160000 34008KT P6SM SKC
NOTAMs
Click for the latest NOTAMs
NOTAMs are issued by the DoD/FAA and will open in a separate window not controlled by AirNav.

 

 
 

Would you like to see your business listed on this page?

 If your business provides an interesting product or service to pilots, flight crews, aircraft, or users of the USA Medical Center Heliport, you should consider listing it here.  To start the listing process, click on the button below
 
Add a business
 

Other Pages about USA Medical Center Heliport

Update a link
 
Copyright © AirNav, LLC. All rights reserved. Privacy Policy  Contact